createdAt,value
2018-03-23T00:01:19.492Z,79.60
2018-03-23T00:03:47.080Z,79.60
2018-03-23T00:06:14.637Z,79.60
2018-03-23T00:08:42.215Z,79.60
2018-03-23T00:11:10.519Z,79.70
2018-03-23T00:13:38.109Z,79.70
2018-03-23T00:16:05.649Z,79.90
2018-03-23T00:18:33.242Z,79.80
2018-03-23T00:21:00.791Z,79.90
2018-03-23T00:23:28.380Z,79.90
2018-03-23T00:25:55.915Z,79.80
2018-03-23T00:28:23.504Z,79.80
2018-03-23T00:30:51.039Z,80.00
2018-03-23T00:33:18.628Z,80.00
2018-03-23T00:35:46.172Z,80.10
2018-03-23T00:38:13.759Z,80.20
2018-03-23T00:40:42.059Z,80.30
2018-03-23T00:43:09.640Z,80.30
2018-03-23T00:45:37.177Z,80.30
2018-03-23T00:48:04.759Z,80.20
2018-03-23T00:50:32.297Z,80.30
2018-03-23T00:52:59.892Z,80.30
2018-03-23T00:55:27.427Z,80.50
2018-03-23T00:57:55.012Z,80.50
2018-03-23T01:00:22.553Z,80.50
2018-03-23T01:02:50.131Z,80.60
2018-03-23T01:05:17.677Z,80.60
2018-03-23T01:07:45.274Z,80.80
2018-03-23T01:10:12.809Z,80.70
2018-03-23T01:12:40.396Z,80.80
2018-03-23T01:15:07.930Z,80.80
2018-03-23T01:17:35.510Z,80.90
2018-03-23T01:20:03.099Z,80.90
2018-03-23T01:22:31.450Z,81.00
2018-03-23T01:24:58.984Z,80.90
2018-03-23T01:27:26.573Z,81.00
2018-03-23T01:29:54.107Z,81.00
2018-03-23T01:32:21.697Z,81.00
2018-03-23T01:34:49.236Z,81.30
2018-03-23T01:37:23.356Z,81.30
2018-03-23T01:39:50.894Z,81.30
2018-03-23T01:42:18.476Z,81.30
2018-03-23T01:44:46.020Z,81.40
2018-03-23T01:47:13.600Z,81.20
2018-03-23T01:49:41.147Z,81.20
2018-03-23T01:52:08.748Z,81.30
2018-03-23T01:54:37.053Z,81.30
2018-03-23T01:57:04.636Z,81.30
2018-03-23T01:59:32.188Z,81.50
2018-03-23T02:01:59.801Z,81.40
2018-03-23T02:04:28.829Z,81.60
2018-03-23T02:06:56.423Z,81.50
2018-03-23T02:09:23.956Z,81.40
2018-03-23T02:11:51.536Z,81.50
2018-03-23T02:14:19.080Z,81.60
2018-03-23T02:16:46.666Z,81.70
2018-03-23T02:19:14.333Z,81.70
2018-03-23T02:21:41.932Z,81.70
2018-03-23T02:24:09.477Z,81.70
2018-03-23T02:26:37.998Z,81.80
2018-03-23T02:29:05.562Z,81.70
2018-03-23T02:31:33.173Z,82.50
2018-03-23T02:34:01.484Z,82.00
2018-03-23T02:36:29.093Z,82.00
2018-03-23T02:38:57.422Z,81.90
2018-03-23T02:41:25.029Z,81.90
2018-03-23T02:43:52.571Z,82.00
2018-03-23T02:46:20.112Z,82.10
2018-03-23T02:48:47.780Z,82.00
2018-03-23T02:51:15.325Z,82.20
2018-03-23T02:53:42.911Z,82.20
2018-03-23T02:56:10.447Z,82.20
2018-03-23T02:58:38.035Z,82.30
2018-03-23T03:01:05.575Z,82.20
2018-03-23T03:03:33.156Z,82.30
2018-03-23T03:06:00.696Z,82.40
2018-03-23T03:08:28.271Z,82.40
2018-03-23T03:10:55.813Z,82.20
2018-03-23T03:13:23.388Z,82.30
2018-03-23T03:15:50.932Z,82.30
2018-03-23T03:18:18.511Z,82.40
2018-03-23T03:20:46.070Z,82.50
2018-03-23T03:23:13.643Z,82.50
2018-03-23T03:25:41.191Z,82.50
2018-03-23T03:28:08.773Z,82.60
2018-03-23T03:30:36.322Z,82.70
2018-03-23T03:33:03.904Z,82.60
2018-03-23T03:35:32.223Z,82.70
2018-03-23T03:37:59.798Z,82.60
2018-03-23T03:40:27.328Z,82.70
2018-03-23T03:42:54.908Z,82.70
2018-03-23T03:45:22.444Z,82.60
2018-03-23T03:47:50.042Z,82.70
2018-03-23T03:50:17.583Z,82.80
2018-03-23T03:52:45.176Z,82.80
2018-03-23T03:55:12.716Z,82.70
2018-03-23T03:57:40.318Z,82.80
2018-03-23T04:00:08.620Z,82.70
2018-03-23T04:02:36.216Z,82.60
2018-03-23T04:05:03.759Z,82.70
2018-03-23T04:07:31.335Z,82.70
2018-03-23T04:09:58.877Z,83.00
2018-03-23T04:12:26.451Z,82.90
2018-03-23T04:14:53.981Z,83.00
2018-03-23T04:17:21.575Z,83.20
2018-03-23T04:19:49.111Z,83.00
2018-03-23T04:22:16.709Z,83.00
2018-03-23T04:24:44.248Z,82.90
2018-03-23T04:27:11.797Z,83.00
2018-03-23T04:29:39.420Z,82.90
2018-03-23T04:32:07.724Z,83.00
2018-03-23T04:34:35.308Z,83.00
2018-03-23T04:37:02.848Z,83.20
2018-03-23T04:39:30.431Z,83.20
2018-03-23T04:41:57.971Z,83.10
2018-03-23T04:44:25.555Z,83.20
2018-03-23T04:46:53.091Z,83.30
2018-03-23T04:49:20.672Z,83.20
2018-03-23T04:51:48.210Z,83.20
2018-03-23T04:54:15.780Z,83.30
2018-03-23T04:56:43.324Z,83.40
2018-03-23T04:59:10.924Z,83.40
2018-03-23T05:01:38.467Z,83.50
2018-03-23T05:04:06.062Z,83.60
2018-03-23T05:07:05.126Z,83.70
2018-03-23T05:09:36.299Z,83.60
2018-03-23T05:12:03.836Z,83.60
2018-03-23T05:14:31.420Z,83.70
2018-03-23T05:16:58.964Z,83.60
2018-03-23T05:19:26.543Z,83.70
2018-03-23T05:21:54.081Z,83.60
2018-03-23T05:24:21.665Z,83.90
2018-03-23T05:26:49.964Z,83.90
2018-03-23T05:29:17.650Z,83.80
2018-03-23T05:31:45.189Z,83.90
2018-03-23T05:34:12.776Z,83.80
2018-03-23T05:36:40.316Z,83.80
2018-03-23T05:39:07.893Z,83.70
2018-03-23T05:41:35.436Z,84.00
2018-03-23T05:44:03.013Z,83.90
2018-03-23T05:46:30.543Z,83.90
2018-03-23T05:48:58.162Z,83.80
2018-03-23T05:51:25.688Z,84.00
2018-03-23T05:53:53.264Z,84.00
2018-03-23T05:56:20.804Z,84.00
2018-03-23T05:58:48.384Z,84.00
2018-03-23T06:01:15.928Z,84.00
2018-03-23T06:03:43.511Z,84.10
2018-03-23T06:06:11.049Z,84.20
2018-03-23T06:08:38.652Z,84.20
2018-03-23T06:11:06.368Z,84.20
2018-03-23T06:13:33.946Z,84.20
2018-03-23T06:16:01.500Z,84.20
2018-03-23T06:18:29.087Z,84.20
2018-03-23T06:20:56.623Z,84.30
2018-03-23T06:23:24.207Z,84.20
2018-03-23T06:25:51.743Z,84.20
2018-03-23T06:28:19.338Z,84.20
2018-03-23T06:30:47.647Z,84.40
2018-03-23T06:33:15.227Z,84.30
2018-03-23T06:35:42.769Z,84.50
2018-03-23T06:38:10.309Z,84.40
2018-03-23T06:40:38.668Z,84.40
2018-03-23T06:43:06.217Z,84.40
2018-03-23T06:45:33.806Z,84.40
2018-03-23T06:48:02.125Z,84.50
2018-03-23T06:50:29.704Z,84.40
2018-03-23T06:52:57.243Z,84.50
2018-03-23T06:55:24.849Z,84.50
2018-03-23T06:57:52.396Z,84.50
2018-03-23T07:00:19.984Z,84.60
2018-03-23T07:02:48.293Z,84.60
2018-03-23T07:05:15.889Z,84.60
2018-03-23T07:07:43.437Z,84.60
2018-03-23T07:10:11.020Z,84.60
2018-03-23T07:12:38.555Z,84.50
2018-03-23T07:15:06.138Z,84.60
2018-03-23T07:17:33.676Z,84.70
2018-03-23T07:20:01.253Z,84.60
2018-03-23T07:22:28.799Z,84.60
2018-03-23T07:24:56.385Z,84.70
2018-03-23T07:27:24.697Z,84.80
2018-03-23T07:29:52.287Z,84.70
2018-03-23T07:32:19.930Z,84.80
2018-03-23T07:34:47.532Z,84.80
2018-03-23T07:37:15.075Z,84.80
2018-03-23T07:39:42.655Z,84.90
2018-03-23T07:42:10.189Z,84.90
2018-03-23T07:44:37.839Z,84.80
2018-03-23T07:47:05.524Z,85.00
2018-03-23T07:49:33.240Z,85.10
2018-03-23T07:52:00.807Z,85.00
2018-03-23T07:54:28.451Z,85.00
2018-03-23T07:56:56.013Z,85.00
2018-03-23T07:59:23.703Z,85.10
2018-03-23T08:01:51.311Z,84.90
2018-03-23T08:04:19.668Z,85.10
2018-03-23T08:06:47.222Z,85.10
2018-03-23T08:09:14.802Z,85.10
2018-03-23T08:11:42.355Z,85.10
2018-03-23T08:14:09.932Z,85.10
2018-03-23T08:16:37.472Z,85.20
2018-03-23T08:19:05.212Z,85.40
2018-03-23T08:21:32.766Z,85.10
2018-03-23T08:24:00.347Z,85.10
2018-03-23T08:26:27.884Z,85.40
2018-03-23T08:28:55.454Z,85.40
2018-03-23T08:31:22.987Z,85.40
2018-03-23T08:33:50.560Z,85.40
2018-03-23T08:36:18.105Z,85.60
2018-03-23T08:38:45.687Z,87.00
2018-03-23T08:41:13.222Z,87.20
2018-03-23T08:43:40.805Z,87.60
2018-03-23T08:46:08.343Z,87.30
2018-03-23T08:48:35.924Z,87.40
2018-03-23T08:51:03.467Z,87.20
2018-03-23T08:53:31.119Z,86.90
2018-03-23T08:55:59.410Z,86.80
2018-03-23T08:58:26.995Z,86.80
2018-03-23T09:00:54.539Z,86.80
2018-03-23T09:03:22.119Z,86.80
2018-03-23T09:05:49.668Z,86.40
2018-03-23T09:08:17.244Z,86.80
2018-03-23T09:10:44.789Z,86.70
2018-03-23T09:13:12.383Z,87.20
2018-03-23T09:15:39.924Z,87.70
2018-03-23T09:18:07.517Z,87.30
2018-03-23T09:20:35.819Z,87.30
2018-03-23T09:23:03.415Z,87.30
2018-03-23T09:25:30.961Z,87.60
2018-03-23T09:27:58.544Z,86.70
2018-03-23T09:30:26.103Z,86.80
2018-03-23T09:32:53.695Z,87.00
2018-03-23T09:35:22.003Z,86.70
2018-03-23T09:37:49.587Z,86.60
2018-03-23T09:40:17.230Z,86.70
2018-03-23T09:42:44.821Z,87.10
2018-03-23T09:45:12.363Z,87.40
2018-03-23T09:47:39.959Z,87.70
2018-03-23T09:50:07.491Z,87.40
2018-03-23T09:52:35.088Z,87.20
2018-03-23T09:55:03.388Z,87.30
2018-03-23T09:57:30.927Z,87.30
2018-03-23T09:59:59.276Z,87.30
2018-03-23T10:02:26.817Z,87.20
2018-03-23T10:04:54.395Z,87.60
2018-03-23T10:07:21.922Z,87.50
2018-03-23T10:09:49.508Z,87.00
2018-03-23T10:12:17.062Z,86.70
2018-03-23T10:14:44.809Z,86.70
2018-03-23T10:17:12.342Z,87.10
2018-03-23T10:19:39.928Z,87.20
2018-03-23T10:22:07.466Z,87.10
2018-03-23T10:24:35.060Z,87.20
2018-03-23T10:27:02.595Z,87.20
2018-03-23T10:29:30.182Z,87.10
2018-03-23T10:31:57.711Z,87.20
2018-03-23T10:34:25.298Z,87.20
2018-03-23T10:36:52.853Z,87.30
2018-03-23T10:39:20.444Z,87.00
2018-03-23T10:41:47.984Z,86.90
2018-03-23T10:44:15.564Z,86.50
2018-03-23T10:46:43.156Z,86.90
2018-03-23T10:49:10.716Z,86.80
2018-03-23T10:51:38.261Z,86.00
2018-03-23T10:54:06.633Z,86.70
2018-03-23T10:56:34.942Z,86.90
2018-03-23T10:59:02.526Z,86.10
2018-03-23T11:01:32.067Z,86.60
2018-03-23T11:03:59.641Z,86.50
2018-03-23T11:06:27.201Z,86.70
2018-03-23T11:08:55.553Z,86.20
2018-03-23T11:11:23.092Z,86.10
2018-03-23T11:13:50.680Z,86.10
2018-03-23T11:16:18.221Z,85.50
2018-03-23T11:18:45.812Z,85.70
2018-03-23T11:21:14.116Z,86.10
2018-03-23T11:23:41.704Z,85.20
2018-03-23T11:26:09.257Z,85.50
2018-03-23T11:28:36.835Z,85.50
2018-03-23T11:31:04.383Z,85.70
2018-03-23T11:33:31.972Z,85.00
2018-03-23T11:35:59.519Z,85.00
2018-03-23T11:38:27.112Z,85.00
2018-03-23T11:40:55.418Z,85.20
2018-03-23T11:43:23.765Z,85.30
2018-03-23T11:45:52.090Z,86.10
2018-03-23T11:48:19.683Z,85.90
2018-03-23T11:50:47.242Z,85.00
2018-03-23T11:53:14.839Z,85.20
2018-03-23T11:55:43.153Z,84.90
2018-03-23T11:58:10.744Z,84.80
2018-03-23T12:00:39.803Z,85.00
2018-03-23T12:03:07.396Z,84.90
2018-03-23T12:05:34.946Z,89.00
2018-03-23T12:08:02.532Z,87.60
2018-03-23T12:10:30.075Z,86.70
2018-03-23T12:12:57.668Z,86.40
2018-03-23T12:15:25.992Z,86.30
2018-03-23T12:17:53.575Z,86.30
2018-03-23T12:20:21.120Z,85.90
2018-03-23T12:22:48.704Z,85.80
2018-03-23T12:25:16.249Z,85.80
2018-03-23T12:27:43.836Z,86.00
2018-03-23T12:30:12.151Z,85.70
2018-03-23T12:32:39.736Z,85.70
2018-03-23T12:35:07.275Z,85.70
2018-03-23T12:37:34.868Z,85.80
2018-03-23T12:40:02.423Z,85.60
2018-03-23T12:42:30.007Z,85.60
2018-03-23T12:44:58.332Z,86.10
2018-03-23T12:47:25.914Z,86.10
2018-03-23T12:49:53.455Z,85.60
2018-03-23T12:52:21.060Z,93.90
2018-03-23T12:54:48.605Z,86.10
2018-03-23T12:57:16.236Z,78.50
2018-03-23T12:59:43.779Z,74.60
2018-03-23T13:02:11.364Z,72.20
2018-03-23T13:04:38.925Z,69.60
2018-03-23T13:07:06.509Z,68.90
2018-03-23T13:09:34.826Z,67.30
2018-03-23T13:12:02.432Z,67.30
2018-03-23T13:14:30.095Z,67.00
2018-03-23T13:16:57.674Z,67.00
2018-03-23T13:19:25.297Z,67.00
2018-03-23T13:21:52.876Z,67.00
2018-03-23T13:24:21.464Z,66.70
2018-03-23T13:26:49.054Z,66.80
2018-03-23T13:29:17.437Z,64.80
2018-03-23T13:31:45.766Z,64.30
2018-03-23T13:34:13.367Z,64.30
2018-03-23T13:36:41.800Z,64.40
2018-03-23T13:39:09.351Z,64.10
2018-03-23T13:41:36.955Z,63.90
2018-03-23T13:44:04.500Z,65.00
2018-03-23T13:46:32.093Z,64.70
2018-03-23T13:49:00.416Z,64.50
2018-03-23T13:51:27.984Z,64.50
2018-03-23T13:53:55.649Z,64.80
2018-03-23T13:56:23.188Z,64.80
2018-03-23T13:58:56.547Z,66.40
2018-03-23T14:01:30.468Z,66.30
2018-03-23T14:03:58.817Z,65.20
2018-03-23T14:06:27.143Z,65.10
2018-03-23T14:08:54.747Z,65.20
2018-03-23T14:11:22.343Z,66.40
2018-03-23T14:13:50.763Z,66.50
2018-03-23T14:16:18.302Z,66.50
2018-03-23T14:18:45.887Z,66.60
2018-03-23T14:21:13.424Z,66.50
2018-03-23T14:23:41.013Z,66.70
2018-03-23T14:26:08.556Z,66.70
2018-03-23T14:28:36.148Z,66.70
2018-03-23T14:31:03.692Z,66.60
2018-03-23T14:33:31.340Z,66.70
2018-03-23T14:35:58.895Z,67.00
2018-03-23T14:38:26.471Z,67.00
2018-03-23T14:40:54.012Z,67.10
2018-03-23T14:43:21.605Z,67.00
2018-03-23T14:45:49.512Z,67.10
2018-03-23T14:48:17.133Z,67.40
2018-03-23T14:50:44.671Z,67.30
2018-03-23T14:53:12.254Z,67.40
2018-03-23T14:55:39.796Z,67.70
2018-03-23T14:58:07.384Z,67.70
2018-03-23T15:00:34.931Z,67.50
2018-03-23T15:03:02.602Z,67.60
2018-03-23T15:05:31.673Z,67.40
2018-03-23T15:07:59.265Z,67.50
2018-03-23T15:10:26.813Z,67.50
2018-03-23T15:12:54.394Z,67.50
2018-03-23T15:15:22.007Z,67.50
2018-03-23T15:17:49.603Z,67.70
2018-03-23T15:20:17.152Z,67.50
2018-03-23T15:22:44.726Z,67.20
2018-03-23T15:25:12.269Z,67.20
2018-03-23T15:27:39.876Z,67.30
2018-03-23T15:30:07.441Z,67.40
2018-03-23T15:32:35.045Z,67.40
2018-03-23T15:35:02.592Z,67.70
2018-03-23T15:37:30.188Z,67.70
2018-03-23T15:39:57.728Z,67.70
2018-03-23T15:42:25.319Z,67.80
2018-03-23T15:44:52.892Z,67.90
2018-03-23T15:47:21.224Z,67.70
2018-03-23T15:49:48.759Z,67.80
2018-03-23T15:52:16.343Z,68.00
2018-03-23T15:54:43.890Z,67.80
2018-03-23T15:57:11.476Z,67.70
2018-03-23T15:59:39.013Z,67.70
2018-03-23T16:02:06.564Z,68.00
2018-03-23T16:04:34.156Z,68.10
2018-03-23T16:07:01.703Z,68.10
2018-03-23T16:09:29.274Z,68.30
2018-03-23T16:11:56.814Z,68.20
2018-03-23T16:14:24.400Z,68.30
2018-03-23T16:16:51.944Z,68.40
2018-03-23T16:19:19.541Z,68.50
2018-03-23T16:21:47.849Z,68.40
2018-03-23T16:24:15.434Z,68.40
2018-03-23T16:26:42.997Z,68.40
2018-03-23T16:29:10.580Z,68.50
2018-03-23T16:31:38.132Z,68.60
2018-03-23T16:34:07.228Z,68.70
2018-03-23T16:36:35.585Z,68.50
2018-03-23T16:39:03.184Z,68.50
2018-03-23T16:41:30.730Z,68.50
2018-03-23T16:43:58.320Z,68.50
2018-03-23T16:46:26.623Z,68.60
2018-03-23T16:48:54.225Z,68.70
2018-03-23T16:51:21.778Z,68.80
2018-03-23T16:53:49.371Z,68.80
2018-03-23T16:56:17.694Z,68.80
2018-03-23T16:58:45.271Z,68.80
2018-03-23T17:01:12.799Z,68.70
2018-03-23T17:03:40.376Z,68.80
2018-03-23T17:06:07.917Z,68.80
2018-03-23T17:08:35.507Z,68.70
2018-03-23T17:11:03.096Z,68.80
2018-03-23T17:13:30.707Z,68.80
2018-03-23T17:15:58.317Z,69.60
2018-03-23T17:18:25.981Z,68.70
2018-03-23T17:20:54.224Z,68.60
2018-03-23T17:23:21.859Z,68.70
2018-03-23T17:25:49.418Z,68.80
2018-03-23T17:28:16.996Z,69.10
2018-03-23T17:30:44.531Z,69.20
2018-03-23T17:33:12.118Z,69.20
2018-03-23T17:35:39.709Z,69.30
2018-03-23T17:38:07.247Z,69.30
2018-03-23T17:40:34.824Z,69.20
2018-03-23T17:43:02.367Z,69.20
2018-03-23T17:45:29.942Z,69.20
2018-03-23T17:47:58.992Z,69.10
2018-03-23T17:50:26.579Z,69.10
2018-03-23T17:52:54.159Z,69.20
2018-03-23T17:55:21.744Z,69.30
2018-03-23T17:57:50.066Z,69.50
2018-03-23T18:00:17.727Z,69.40
2018-03-23T18:02:45.267Z,69.50
2018-03-23T18:05:12.857Z,69.70
2018-03-23T18:07:40.401Z,69.70
2018-03-23T18:10:07.985Z,69.90
2018-03-23T18:12:35.516Z,69.90
2018-03-23T18:15:03.091Z,70.00
2018-03-23T18:17:30.657Z,70.10
2018-03-23T18:19:58.309Z,70.00
2018-03-23T18:22:26.614Z,70.10
2018-03-23T18:24:54.196Z,70.10
2018-03-23T18:27:21.744Z,70.00
2018-03-23T18:29:50.789Z,70.40
2018-03-23T18:32:18.373Z,70.30
2018-03-23T18:34:45.914Z,70.40
2018-03-23T18:37:13.514Z,70.60
2018-03-23T18:39:41.084Z,70.70
2018-03-23T18:42:08.629Z,70.90
2018-03-23T18:44:36.179Z,71.00
2018-03-23T18:47:03.763Z,70.90
2018-03-23T18:49:31.296Z,71.10
2018-03-23T18:51:58.892Z,71.10
2018-03-23T18:54:27.211Z,71.30
2018-03-23T18:56:54.787Z,71.30
2018-03-23T18:59:22.331Z,71.30
2018-03-23T19:01:49.916Z,71.30
2018-03-23T19:04:17.481Z,71.30
2018-03-23T19:06:45.066Z,71.40
2018-03-23T19:09:12.782Z,71.60
2018-03-23T19:11:40.563Z,71.70
2018-03-23T19:14:08.112Z,71.60
2018-03-23T19:16:35.697Z,71.70
2018-03-23T19:19:03.301Z,71.70
2018-03-23T19:21:30.967Z,71.80
2018-03-23T19:23:58.660Z,72.00
2018-03-23T19:26:26.299Z,72.00
2018-03-23T19:28:53.952Z,72.00
2018-03-23T19:31:21.586Z,72.10
2018-03-23T19:33:49.929Z,72.30
2018-03-23T19:36:17.519Z,72.30
2018-03-23T19:38:45.078Z,72.50
2018-03-23T19:41:12.668Z,73.30
2018-03-23T19:43:40.214Z,72.50
2018-03-23T19:46:08.588Z,72.70
2018-03-23T19:48:36.900Z,72.90
2018-03-23T19:51:04.693Z,72.70
2018-03-23T19:53:32.340Z,72.90
2018-03-23T19:55:59.931Z,72.90
2018-03-23T19:58:28.121Z,72.90
2018-03-23T20:00:55.728Z,73.10
2018-03-23T20:03:23.339Z,73.10
2018-03-23T20:05:51.688Z,73.30
2018-03-23T20:08:19.231Z,73.30
2018-03-23T20:10:46.844Z,73.40
2018-03-23T20:13:14.496Z,73.50
2018-03-23T20:15:42.162Z,73.40
2018-03-23T20:18:16.133Z,73.60
2018-03-23T20:20:59.428Z,73.60
2018-03-23T20:23:27.786Z,73.80
2018-03-23T20:25:55.484Z,73.70
2018-03-23T20:28:28.798Z,73.90
2018-03-23T20:30:56.390Z,73.90
2018-03-23T20:33:24.065Z,73.90
2018-03-23T20:35:52.564Z,74.20
2018-03-23T20:38:20.191Z,74.20
2018-03-23T20:40:48.642Z,74.30
2018-03-23T20:43:16.303Z,74.20
2018-03-23T20:45:43.879Z,74.40
2018-03-23T20:48:11.495Z,74.50
2018-03-23T20:50:39.795Z,74.70
2018-03-23T20:53:07.394Z,74.60
2018-03-23T20:55:34.950Z,74.70
2018-03-23T20:58:02.585Z,74.80
2018-03-23T21:00:30.139Z,74.70
2018-03-23T21:02:57.898Z,74.70
2018-03-23T21:05:25.498Z,74.70
2018-03-23T21:07:53.341Z,74.80
2018-03-23T21:10:21.004Z,74.90
2018-03-23T21:12:48.616Z,75.00
2018-03-23T21:15:17.023Z,74.90
2018-03-23T21:17:44.688Z,74.90
2018-03-23T21:20:12.243Z,75.00
2018-03-23T21:22:39.832Z,74.90
2018-03-23T21:25:07.383Z,75.00
2018-03-23T21:27:34.994Z,75.00
2018-03-23T21:30:03.351Z,75.00
2018-03-23T21:32:30.934Z,74.90
2018-03-23T21:34:59.261Z,75.10
2018-03-23T21:37:26.872Z,75.10
2018-03-23T21:39:55.178Z,75.20
2018-03-23T21:42:22.812Z,75.30
2018-03-23T21:44:51.147Z,75.50
2018-03-23T21:47:18.718Z,75.30
2018-03-23T21:49:46.361Z,75.40
2018-03-23T21:52:14.028Z,75.50
2018-03-23T21:54:41.638Z,75.60
2018-03-23T21:57:09.943Z,75.80
2018-03-23T21:59:37.534Z,75.70
2018-03-23T22:02:05.112Z,75.70
2018-03-23T22:04:32.809Z,75.80
2018-03-23T22:07:00.432Z,75.80
2018-03-23T22:09:28.188Z,75.90
2018-03-23T22:11:55.736Z,75.90
2018-03-23T22:14:23.336Z,76.00
2018-03-23T22:16:51.659Z,76.00
2018-03-23T22:19:19.256Z,76.00
2018-03-23T22:21:46.917Z,76.00
2018-03-23T22:24:14.513Z,76.10
2018-03-23T22:26:42.056Z,76.20
2018-03-23T22:29:10.411Z,76.30
2018-03-23T22:31:37.956Z,76.30
2018-03-23T22:34:05.543Z,76.20
2018-03-23T22:36:33.089Z,76.30
2018-03-23T22:39:00.676Z,76.40
2018-03-23T22:41:28.979Z,76.50
2018-03-23T22:43:56.564Z,76.40
2018-03-23T22:46:24.114Z,76.50
2018-03-23T22:48:51.712Z,76.50
2018-03-23T22:51:20.029Z,76.70
2018-03-23T22:53:47.616Z,76.70
2018-03-23T22:56:15.165Z,76.70
2018-03-23T22:58:42.750Z,76.70
2018-03-23T23:01:10.296Z,76.70
2018-03-23T23:03:37.892Z,76.70
2018-03-23T23:06:07.144Z,76.80
2018-03-23T23:08:34.733Z,76.80
2018-03-23T23:11:02.267Z,76.80
2018-03-23T23:13:29.847Z,76.90
2018-03-23T23:15:57.391Z,76.90
2018-03-23T23:18:24.980Z,77.00
2018-03-23T23:20:52.525Z,77.00
2018-03-23T23:23:20.109Z,77.00
2018-03-23T23:25:47.669Z,77.10
2018-03-23T23:28:15.257Z,77.10
2018-03-23T23:30:43.569Z,77.10
2018-03-23T23:33:11.152Z,77.10
2018-03-23T23:35:38.694Z,77.20
2018-03-23T23:38:06.280Z,77.20
2018-03-23T23:40:33.831Z,77.30
2018-03-23T23:43:01.428Z,77.40
2018-03-23T23:45:29.741Z,77.40
2018-03-23T23:47:57.326Z,77.40
2018-03-23T23:50:24.866Z,77.30
2018-03-23T23:52:52.452Z,77.40
2018-03-23T23:55:19.991Z,77.40
2018-03-23T23:57:47.581Z,77.50
